Time;durP1;ratioP1;P1;durP2;ratioP2;P2;SDS_P1;SDS_P2;PMS_P1;PMS_P2;Temp;Humidity;BMP_temperature;BMP_pressure;BME280_temperature;BME280_humidity;BME280_pressure;Samples;Min_cycle;Max_cycle;Signal;HPM_P1;HPM_P2
2024/04/17 00:01:50;;;;;;;4.10;3.10;;;;;;;7.20;97.62;96626.88;104675;1273;62132;-46
2024/04/17 00:04:16;;;;;;;8.00;2.90;;;;;;;7.20;97.87;96633.90;104702;1274;62079;-49
2024/04/17 00:06:43;;;;;;;6.60;2.70;;;;;;;7.21;98.07;96634.89;104693;1274;62106;-46
2024/04/17 00:09:09;;;;;;;3.50;2.70;;;;;;;7.22;97.85;96638.65;104807;1273;62083;-46
2024/04/17 00:11:36;;;;;;;6.50;3.10;;;;;;;7.24;98.22;96645.84;104713;1273;62061;-46
2024/04/17 00:14:03;;;;;;;4.30;2.80;;;;;;;7.24;97.97;96635.26;104384;1273;62192;-45
2024/04/17 00:16:29;;;;;;;5.20;2.90;;;;;;;7.23;98.30;96625.39;104396;1274;75444;-46
2024/04/17 00:18:56;;;;;;;5.00;2.90;;;;;;;7.22;98.15;96613.09;104911;1270;62176;-44
2024/04/17 00:21:22;;;;;;;5.00;3.10;;;;;;;7.21;98.12;96603.98;104264;1276;62103;-45
2024/04/17 00:23:50;;;;;;;4.90;2.90;;;;;;;7.21;98.29;96594.98;105096;1269;62075;-45
2024/04/17 00:26:16;;;;;;;5.10;3.00;;;;;;;7.20;97.91;96595.09;104732;1271;62098;-45
2024/04/17 00:28:43;;;;;;;4.80;3.00;;;;;;;7.17;97.47;96592.38;104366;1273;62068;-46
2024/04/17 00:31:10;;;;;;;6.40;2.90;;;;;;;7.16;97.34;96587.13;104546;1274;65358;-45
2024/04/17 00:33:37;;;;;;;5.80;3.10;;;;;;;7.16;97.26;96586.54;104512;1273;72570;-45
2024/04/17 00:36:04;;;;;;;4.20;2.90;;;;;;;7.18;97.67;96584.33;104581;1274;62015;-45
2024/04/17 00:38:30;;;;;;;4.40;2.90;;;;;;;7.18;97.66;96583.08;104522;1272;62094;-45
2024/04/17 00:40:57;;;;;;;7.60;3.90;;;;;;;7.19;97.49;96589.18;104484;1273;62167;-46
2024/04/17 00:43:24;;;;;;;6.10;3.40;;;;;;;7.19;97.47;96594.36;104623;1270;62126;-45
2024/04/17 00:45:50;;;;;;;7.10;3.40;;;;;;;7.17;97.47;96593.81;104603;1273;72609;-45
2024/04/17 00:48:16;;;;;;;6.20;3.00;;;;;;;7.17;97.57;96593.44;104425;1272;62455;-45
2024/04/17 00:50:48;;;;;;;6.70;3.00;;;;;;;7.18;97.65;96598.52;104388;1271;62116;-45
2024/04/17 00:53:18;;;;;;;6.40;3.20;;;;;;;7.19;97.94;96609.59;104421;1274;75982;-45
2024/04/17 00:55:45;;;;;;;4.80;3.20;;;;;;;7.19;98.22;96605.27;104481;1276;66977;-45
2024/04/17 00:58:11;;;;;;;5.90;3.70;;;;;;;7.19;98.12;96600.65;104398;1270;62183;-45
2024/04/17 01:00:38;;;;;;;4.10;3.30;;;;;;;7.17;98.24;96608.25;104467;1274;62078;-45
2024/04/17 01:03:05;;;;;;;5.70;3.40;;;;;;;7.17;98.31;96611.88;104373;1273;62184;-45
2024/04/17 01:05:32;;;;;;;5.40;3.40;;;;;;;7.16;98.31;96607.21;104447;1275;75552;-46
2024/04/17 01:07:59;;;;;;;4.70;2.90;;;;;;;7.14;98.33;96601.34;104368;1274;66051;-46
2024/04/17 01:10:26;;;;;;;7.10;3.90;;;;;;;7.12;98.58;96600.70;104545;1273;72516;-46
2024/04/17 01:12:53;;;;;;;7.00;3.80;;;;;;;7.11;98.93;96599.34;104443;1284;62136;-46
2024/04/17 01:15:21;;;;;;;6.40;3.40;;;;;;;7.12;99.02;96595.95;104541;1273;62065;-45
2024/04/17 01:17:48;;;;;;;4.60;3.50;;;;;;;7.11;98.99;96594.02;104431;1273;75471;-46
2024/04/17 01:20:15;;;;;;;6.00;3.30;;;;;;;7.10;99.13;96598.52;104590;1273;65924;-44
2024/04/17 01:22:41;;;;;;;5.50;3.50;;;;;;;7.08;99.03;96604.14;104296;1272;62090;-46
2024/04/17 01:25:08;;;;;;;7.10;2.90;;;;;;;7.08;99.18;96598.02;104327;1274;62075;-46
2024/04/17 01:27:34;;;;;;;5.70;3.00;;;;;;;7.06;99.16;96595.14;104707;1273;62222;-48
2024/04/17 01:30:01;;;;;;;8.50;3.50;;;;;;;7.06;99.39;96597.27;104536;1278;62188;-46
2024/04/17 01:32:28;;;;;;;4.90;3.30;;;;;;;7.05;99.21;96593.77;104569;1277;62094;-48
2024/04/17 01:34:54;;;;;;;6.80;3.50;;;;;;;7.04;99.59;96593.34;104704;1274;72671;-46
2024/04/17 01:37:21;;;;;;;5.90;3.70;;;;;;;7.03;99.27;96597.77;104634;1273;62205;-45
2024/04/17 01:39:48;;;;;;;4.50;3.70;;;;;;;7.00;99.23;96597.88;104473;1273;62187;-45
2024/04/17 01:42:15;;;;;;;4.80;3.30;;;;;;;6.99;99.16;96595.67;104366;1275;76465;-45
2024/04/17 01:44:41;;;;;;;4.60;3.30;;;;;;;6.98;99.26;96594.52;104508;1274;62117;-44
2024/04/17 01:47:08;;;;;;;3.80;2.80;;;;;;;6.96;99.48;96596.05;104427;1272;62100;-45
2024/04/17 01:49:34;;;;;;;4.90;3.20;;;;;;;6.96;99.60;96587.34;104491;1274;62152;-45
2024/04/17 01:52:01;;;;;;;4.50;3.20;;;;;;;6.95;99.76;96585.05;104494;1270;62157;-45
2024/04/17 01:54:27;;;;;;;6.90;3.50;;;;;;;6.95;99.80;96577.25;104694;1271;75437;-45
2024/04/17 01:56:54;;;;;;;6.00;3.80;;;;;;;6.95;99.84;96574.01;104633;1274;61992;-45
2024/04/17 01:59:20;;;;;;;5.30;3.70;;;;;;;6.95;99.88;96572.27;104664;1273;62259;-45
2024/04/17 02:01:47;;;;;;;6.00;3.40;;;;;;;6.96;99.82;96576.20;104624;1270;62133;-45
2024/04/17 02:04:13;;;;;;;4.90;3.50;;;;;;;6.96;99.72;96581.36;104670;1272;62082;-45
2024/04/17 02:06:39;;;;;;;6.00;3.10;;;;;;;6.96;99.83;96576.09;104621;1273;62109;-45
2024/04/17 02:09:06;;;;;;;6.50;3.50;;;;;;;6.95;100.00;96573.40;104635;1273;62195;-45
2024/04/17 02:11:32;;;;;;;6.60;3.80;;;;;;;6.94;99.98;96573.74;104598;1273;62138;-46
2024/04/17 02:13:59;;;;;;;6.00;3.40;;;;;;;6.95;99.95;96567.23;105004;1274;62637;-47
2024/04/17 02:16:25;;;;;;;5.70;3.50;;;;;;;6.98;99.94;96566.53;104721;1270;62189;-47
2024/04/17 02:18:52;;;;;;;5.30;3.30;;;;;;;6.98;99.73;96559.40;104540;1274;62249;-45
2024/04/17 02:21:18;;;;;;;6.80;3.30;;;;;;;6.99;99.76;96554.89;104492;1269;62190;-45
2024/04/17 02:23:48;;;;;;;7.20;5.40;;;;;;;6.99;99.97;96549.49;104434;1274;62068;-45
2024/04/17 02:26:14;;;;;;;6.10;4.40;;;;;;;7.00;100.00;96545.70;104428;1274;61950;-45
2024/04/17 02:28:41;;;;;;;6.20;3.70;;;;;;;7.02;100.00;96536.19;104514;1274;62049;-45
2024/04/17 02:31:08;;;;;;;6.60;3.90;;;;;;;7.03;99.95;96533.13;104447;1271;75371;-44
2024/04/17 02:33:34;;;;;;;9.40;3.70;;;;;;;7.05;99.84;96534.89;104386;1274;62155;-45
2024/04/17 02:36:01;;;;;;;6.30;3.50;;;;;;;7.06;99.55;96537.46;104507;1275;72589;-45
2024/04/17 02:38:27;;;;;;;7.10;3.70;;;;;;;7.07;99.34;96539.73;104694;1270;62075;-45
2024/04/17 02:40:54;;;;;;;7.20;3.80;;;;;;;7.06;99.26;96540.39;104659;1273;62059;-45
2024/04/17 02:43:20;;;;;;;5.60;3.40;;;;;;;7.05;99.17;96539.69;104645;1274;75383;-45
2024/04/17 02:45:47;;;;;;;4.70;3.20;;;;;;;7.02;99.39;96538.93;104527;1271;65976;-45
2024/04/17 02:48:14;;;;;;;5.60;3.10;;;;;;;7.00;99.23;96536.39;104493;1273;196473;-45
2024/04/17 02:50:40;;;;;;;5.30;3.70;;;;;;;6.98;98.64;96534.46;104665;1269;62161;-46
2024/04/17 02:53:07;;;;;;;4.90;3.10;;;;;;;6.99;98.25;96530.08;104670;1270;62088;-46
2024/04/17 02:55:34;;;;;;;6.30;3.30;;;;;;;6.97;97.99;96531.58;104729;1270;75213;-46
2024/04/17 02:58:00;;;;;;;5.10;3.40;;;;;;;6.97;98.05;96536.31;104592;1271;66136;-46
2024/04/17 03:00:27;;;;;;;8.40;3.50;;;;;;;6.96;97.10;96535.04;104639;1270;72153;-45
2024/04/17 03:02:53;;;;;;;5.00;3.30;;;;;;;6.96;96.99;96533.82;104324;1274;62063;-44
2024/04/17 03:05:20;;;;;;;4.40;3.40;;;;;;;6.96;97.19;96527.96;104491;1271;62076;-45
2024/04/17 03:07:47;;;;;;;5.50;3.40;;;;;;;6.96;96.80;96529.25;104646;1273;75447;-44
2024/04/17 03:10:13;;;;;;;7.20;3.70;;;;;;;6.95;96.84;96518.63;104644;1270;62176;-48
2024/04/17 03:12:40;;;;;;;6.60;3.40;;;;;;;6.95;96.91;96520.31;104494;1273;72504;-45
2024/04/17 03:15:06;;;;;;;4.10;3.40;;;;;;;6.93;96.83;96520.52;104535;1273;62199;-48
2024/04/17 03:17:33;;;;;;;9.50;3.70;;;;;;;6.93;96.80;96529.85;104530;1274;62100;-45
2024/04/17 03:20:00;;;;;;;4.40;3.50;;;;;;;6.92;96.83;96532.25;104519;1269;75510;-45
2024/04/17 03:22:26;;;;;;;6.20;3.60;;;;;;;6.93;96.50;96532.88;104697;1270;65759;-45
2024/04/17 03:24:53;;;;;;;5.50;3.20;;;;;;;6.93;96.36;96534.25;104611;1273;71626;-45
2024/04/17 03:27:19;;;;;;;4.70;3.60;;;;;;;6.91;96.31;96531.06;104363;1270;62172;-45
2024/04/17 03:29:46;;;;;;;4.70;3.30;;;;;;;6.88;96.36;96534.95;104487;1269;62097;-44
2024/04/17 03:32:13;;;;;;;5.70;3.50;;;;;;;6.86;96.64;96536.17;104662;1282;75124;-46
2024/04/17 03:34:39;;;;;;;5.10;3.40;;;;;;;6.82;97.03;96544.98;104690;1271;62178;-49
2024/04/17 03:37:06;;;;;;;6.80;3.00;;;;;;;6.80;97.68;96552.39;104346;1273;72690;-46
2024/04/17 03:39:32;;;;;;;8.70;3.70;;;;;;;6.76;98.09;96559.71;104538;1271;62050;-46
2024/04/17 03:41:59;;;;;;;6.10;3.50;;;;;;;6.72;98.60;96565.50;104677;1273;62167;-46
2024/04/17 03:44:25;;;;;;;7.20;3.20;;;;;;;6.68;99.01;96563.30;104681;1273;62068;-50
2024/04/17 03:46:51;;;;;;;5.50;3.80;;;;;;;6.62;99.26;96561.67;104390;1270;62209;-46
2024/04/17 03:49:18;;;;;;;6.70;3.20;;;;;;;6.55;99.47;96561.30;104679;1270;72518;-46
2024/04/17 03:51:45;;;;;;;4.40;3.10;;;;;;;6.48;99.73;96563.13;104518;1273;62052;-46
2024/04/17 03:54:11;;;;;;;6.10;3.40;;;;;;;6.42;99.97;96565.33;104469;1270;62206;-45
2024/04/17 03:56:38;;;;;;;6.50;3.60;;;;;;;6.38;100.00;96570.00;104410;1270;62196;-45
2024/04/17 03:59:04;;;;;;;9.10;3.70;;;;;;;6.35;100.00;96571.29;104641;1273;62165;-45
2024/04/17 04:01:34;;;;;;;5.90;3.50;;;;;;;6.32;100.00;96570.61;104641;1272;62115;-46
2024/04/17 04:04:01;;;;;;;9.40;3.80;;;;;;;6.30;100.00;96573.20;104717;1272;62072;-46
2024/04/17 04:06:28;;;;;;;6.10;4.20;;;;;;;6.27;100.00;96573.89;104670;1270;62096;-46
2024/04/17 04:08:54;;;;;;;8.00;4.10;;;;;;;6.25;100.00;96576.81;104956;1271;75689;-45
2024/04/17 04:11:21;;;;;;;13.00;3.80;;;;;;;6.23;100.00;96577.42;104462;1273;65241;-47
2024/04/17 04:13:49;;;;;;;6.80;3.50;;;;;;;6.21;100.00;96578.36;104496;1270;71856;-45
2024/04/17 04:16:16;;;;;;;7.10;4.20;;;;;;;6.19;100.00;96576.21;104595;1273;62072;-45
2024/04/17 04:18:42;;;;;;;5.50;4.00;;;;;;;6.19;100.00;96573.63;104616;1270;62320;-46
2024/04/17 04:21:09;;;;;;;5.40;4.00;;;;;;;6.20;100.00;96575.41;104606;1274;62065;-47
2024/04/17 04:23:35;;;;;;;8.10;4.70;;;;;;;6.23;100.00;96576.69;104435;1273;62206;-45
2024/04/17 04:26:01;;;;;;;9.70;4.30;;;;;;;6.27;100.00;96576.55;104669;1270;62206;-46
2024/04/17 04:28:29;;;;;;;5.40;3.80;;;;;;;6.31;100.00;96569.13;104649;1270;62074;-46
2024/04/17 04:30:55;;;;;;;4.60;4.10;;;;;;;6.37;100.00;96566.08;104377;1274;62055;-46
2024/04/17 04:33:22;;;;;;;5.70;4.00;;;;;;;6.42;100.00;96565.39;104349;1270;62126;-45
2024/04/17 04:35:49;;;;;;;6.70;4.70;;;;;;;6.48;100.00;96569.20;104436;1271;65896;-51
2024/04/17 04:38:15;;;;;;;8.80;5.20;;;;;;;6.53;100.00;96569.24;104510;1272;62190;-50
2024/04/17 04:40:42;;;;;;;7.90;6.10;;;;;;;6.57;100.00;96569.80;104401;1270;62256;-46
2024/04/17 04:43:08;;;;;;;6.80;6.00;;;;;;;6.63;100.00;96573.08;104386;1270;62679;-50
2024/04/17 04:45:35;;;;;;;7.60;5.40;;;;;;;6.70;100.00;96577.14;104242;1276;75503;-46
2024/04/17 04:48:01;;;;;;;9.10;5.40;;;;;;;6.75;100.00;96582.67;104497;1273;62700;-42
2024/04/17 04:50:28;;;;;;;7.80;5.60;;;;;;;6.79;100.00;96583.05;104430;1273;72431;-47
2024/04/17 04:52:55;;;;;;;10.00;5.20;;;;;;;6.84;100.00;96581.98;104312;1272;62087;-44
2024/04/17 04:55:21;;;;;;;6.40;5.10;;;;;;;6.92;100.00;96583.58;104475;1274;62206;-51
2024/04/17 04:57:48;;;;;;;6.30;4.60;;;;;;;7.00;100.00;96585.75;104579;1273;75192;-48
2024/04/17 05:00:15;;;;;;;6.70;5.00;;;;;;;7.08;100.00;96581.77;104242;1270;66663;-47
2024/04/17 05:02:41;;;;;;;6.70;5.10;;;;;;;7.16;100.00;96580.73;104205;1271;72871;-47
2024/04/17 05:05:08;;;;;;;7.80;5.30;;;;;;;7.23;100.00;96584.67;104378;1274;61992;-49
2024/04/17 05:07:35;;;;;;;8.60;5.10;;;;;;;7.31;100.00;96589.97;104692;1270;62090;-45
2024/04/17 05:10:02;;;;;;;6.60;4.70;;;;;;;7.38;100.00;96587.29;104365;1270;74887;-49
2024/04/17 05:12:28;;;;;;;6.10;4.80;;;;;;;7.45;100.00;96588.09;104659;1272;64093;-48
2024/04/17 05:14:55;;;;;;;10.60;4.50;;;;;;;7.50;100.00;96585.55;104454;1270;62130;-48
2024/04/17 05:17:21;;;;;;;5.70;4.20;;;;;;;7.56;99.99;96582.59;104197;1270;62465;-47
2024/04/17 05:19:48;;;;;;;6.50;5.00;;;;;;;7.61;98.74;96583.33;104719;1270;62082;-49
2024/04/17 05:22:15;;;;;;;10.90;4.10;;;;;;;7.63;97.85;96586.14;104457;1273;76404;-47
2024/04/17 05:24:41;;;;;;;7.90;4.50;;;;;;;7.66;97.35;96586.62;104462;1271;62106;-48
2024/04/17 05:27:08;;;;;;;5.20;3.90;;;;;;;7.70;96.53;96592.09;104445;1270;62205;-48
2024/04/17 05:29:34;;;;;;;8.20;4.00;;;;;;;7.74;95.15;96598.40;104251;1270;62112;-48
2024/04/17 05:32:01;;;;;;;11.50;3.90;;;;;;;7.78;94.08;96597.52;104397;1271;62064;-48
2024/04/17 05:34:28;;;;;;;6.10;4.30;;;;;;;7.81;93.64;96606.96;104534;1270;76234;-48
2024/04/17 05:36:55;;;;;;;6.30;4.10;;;;;;;7.86;92.83;96612.16;104296;1273;66028;-48
2024/04/17 05:39:21;;;;;;;6.70;4.50;;;;;;;7.92;91.88;96624.52;104344;1270;72577;-48
2024/04/17 05:41:48;;;;;;;8.10;4.30;;;;;;;7.96;90.89;96623.26;104416;1273;62625;-48
2024/04/17 05:44:14;;;;;;;6.80;3.80;;;;;;;7.99;90.36;96618.64;104501;1269;62126;-48
2024/04/17 05:46:41;;;;;;;6.20;4.20;;;;;;;8.01;89.54;96617.27;104269;1270;62115;-47
2024/04/17 05:49:07;;;;;;;4.60;4.00;;;;;;;8.04;89.62;96612.70;104734;1271;62085;-47
2024/04/17 05:51:34;;;;;;;7.60;4.10;;;;;;;8.10;89.61;96620.48;104645;1273;62054;-47
2024/04/17 05:54:01;;;;;;;8.60;4.70;;;;;;;8.16;88.06;96628.16;104381;1270;62089;-46
2024/04/17 05:56:27;;;;;;;5.90;4.40;;;;;;;8.18;87.96;96634.83;104525;1270;62234;-48
2024/04/17 05:58:54;;;;;;;5.50;4.20;;;;;;;8.22;88.29;96641.41;104331;1270;62095;-48
2024/04/17 06:01:20;;;;;;;6.40;4.30;;;;;;;8.27;87.77;96641.63;104355;1270;66160;-48
2024/04/17 06:03:47;;;;;;;8.90;4.60;;;;;;;8.29;86.80;96645.16;104347;1271;62203;-47
2024/04/17 06:06:13;;;;;;;8.60;4.70;;;;;;;8.31;86.04;96642.84;104416;1273;62054;-49
2024/04/17 06:08:40;;;;;;;6.90;4.80;;;;;;;8.34;85.40;96640.55;104344;1273;62075;-47
2024/04/17 06:11:07;;;;;;;6.90;4.30;;;;;;;8.39;84.78;96639.23;104366;1274;75507;-47
2024/04/17 06:13:34;;;;;;;8.70;5.30;;;;;;;8.45;84.68;96634.00;104559;1271;66699;-49
2024/04/17 06:16:01;;;;;;;9.50;4.50;;;;;;;8.51;84.18;96631.59;104208;1270;72740;-50
2024/04/17 06:18:27;;;;;;;7.60;4.30;;;;;;;8.57;83.44;96630.39;104401;1273;62088;-47
2024/04/17 06:20:54;;;;;;;5.60;4.40;;;;;;;8.64;82.89;96632.70;104381;1270;62089;-48
2024/04/17 06:23:20;;;;;;;7.20;4.20;;;;;;;8.69;82.37;96635.89;104296;1273;76151;-49
2024/04/17 06:25:48;;;;;;;7.90;4.30;;;;;;;8.71;81.90;96638.21;104248;1270;66032;-47
2024/04/17 06:28:15;;;;;;;8.30;5.00;;;;;;;8.72;81.68;96641.94;104457;1270;72555;-48
2024/04/17 06:30:42;;;;;;;6.00;4.20;;;;;;;8.74;81.70;96636.05;104599;1273;62171;-47
2024/04/17 06:33:09;;;;;;;7.50;4.50;;;;;;;8.78;81.48;96637.23;104584;1271;62061;-49
2024/04/17 06:35:35;;;;;;;7.50;4.80;;;;;;;8.80;81.38;96637.33;104740;1269;75533;-48
2024/04/17 06:38:02;;;;;;;8.10;4.60;;;;;;;8.85;81.41;96636.38;104370;1273;66774;-48
2024/04/17 06:40:29;;;;;;;6.20;3.80;;;;;;;8.93;81.97;96637.80;104294;1270;72379;-49
2024/04/17 06:42:57;;;;;;;6.80;4.10;;;;;;;9.02;81.88;96640.91;104360;1273;62103;-51
2024/04/17 06:45:23;;;;;;;7.00;4.20;;;;;;;9.10;81.17;96637.19;104702;1269;62004;-48
2024/04/17 06:47:50;;;;;;;6.10;4.20;;;;;;;9.19;80.70;96636.16;104425;1269;75348;-48
2024/04/17 06:50:17;;;;;;;6.40;3.80;;;;;;;9.27;79.86;96634.32;104405;1273;65088;-48
2024/04/17 06:52:44;;;;;;;7.50;4.10;;;;;;;9.33;79.49;96631.77;104405;1271;72731;-48
2024/04/17 06:55:11;;;;;;;5.60;4.50;;;;;;;9.40;79.32;96632.55;104375;1273;62093;-47
2024/04/17 06:57:38;;;;;;;6.80;4.30;;;;;;;9.48;78.81;96631.73;104404;1270;62053;-49
2024/04/17 07:00:06;;;;;;;7.00;4.40;;;;;;;9.56;77.63;96631.17;104388;1273;75249;-48
2024/04/17 07:02:32;;;;;;;5.80;4.20;;;;;;;9.62;76.85;96628.70;104657;1273;65092;-48
2024/04/17 07:05:02;;;;;;;8.20;4.60;;;;;;;9.69;75.59;96626.68;104448;1270;72859;-48
2024/04/17 07:07:30;;;;;;;8.60;4.60;;;;;;;9.72;75.89;96628.51;104334;1270;62184;-48
2024/04/17 07:09:58;;;;;;;10.10;3.70;;;;;;;9.79;75.67;96626.48;104357;1271;62093;-48
2024/04/17 07:12:25;;;;;;;5.10;3.70;;;;;;;9.85;74.29;96623.19;104562;1269;75362;-49
2024/04/17 07:14:51;;;;;;;6.80;3.40;;;;;;;9.92;73.74;96620.52;104240;1271;65606;-48
2024/04/17 07:17:18;;;;;;;5.30;3.50;;;;;;;10.01;72.87;96620.25;104716;1270;72998;-48
2024/04/17 07:19:46;;;;;;;4.90;3.50;;;;;;;10.10;72.44;96620.63;104384;1272;62175;-51
2024/04/17 07:22:13;;;;;;;7.10;3.90;;;;;;;10.15;71.99;96623.55;104200;1269;62062;-49
2024/04/17 07:24:39;;;;;;;6.00;3.10;;;;;;;10.21;71.80;96628.22;104095;1271;76342;-50
2024/04/17 07:27:06;;;;;;;6.50;3.60;;;;;;;10.26;70.96;96624.15;104061;1271;66931;-51
2024/04/17 07:29:34;;;;;;;3.60;3.00;;;;;;;10.28;69.79;96623.07;104372;1274;72560;-53
2024/04/17 07:32:03;;;;;;;5.70;3.40;;;;;;;10.27;69.60;96623.73;104239;1270;62077;-49
2024/04/17 07:34:30;;;;;;;4.50;3.10;;;;;;;10.26;69.44;96624.17;104271;1270;62231;-50
2024/04/17 07:36:56;;;;;;;5.50;3.10;;;;;;;10.28;68.67;96625.21;104230;1273;76056;-50
2024/04/17 07:39:23;;;;;;;5.70;3.50;;;;;;;10.29;68.60;96624.45;104408;1271;66256;-49
2024/04/17 07:41:50;;;;;;;4.90;3.50;;;;;;;10.32;68.62;96622.23;104359;1271;62193;-49
2024/04/17 07:44:16;;;;;;;5.30;3.50;;;;;;;10.35;67.96;96620.23;104145;1274;62065;-49
2024/04/17 07:46:43;;;;;;;6.30;3.20;;;;;;;10.38;67.91;96624.16;104383;1270;62847;-48
2024/04/17 07:49:09;;;;;;;6.00;3.20;;;;;;;10.40;67.90;96622.37;104174;1273;75121;-50
2024/04/17 07:51:36;;;;;;;5.30;3.00;;;;;;;10.42;66.89;96621.41;104201;1272;62081;-48
2024/04/17 07:54:03;;;;;;;6.40;2.90;;;;;;;10.41;66.44;96622.08;104506;1269;72949;-48
2024/04/17 07:56:30;;;;;;;7.10;3.60;;;;;;;10.42;67.12;96619.23;104321;1273;62072;-49
2024/04/17 07:59:00;;;;;;;4.40;2.90;;;;;;;10.47;67.00;96615.73;104350;1276;62048;-49
2024/04/17 08:01:27;;;;;;;5.20;3.10;;;;;;;10.54;66.52;96615.88;104262;1273;75423;-50
2024/04/17 08:03:54;;;;;;;4.70;2.50;;;;;;;10.61;65.35;96617.06;105750;1270;68486;-48
2024/04/17 08:06:21;;;;;;;5.50;3.00;;;;;;;10.66;64.39;96611.46;104277;1270;71464;-47
2024/04/17 08:08:47;;;;;;;4.40;2.70;;;;;;;10.70;64.13;96605.14;104664;1270;62353;-48
2024/04/17 08:11:16;;;;;;;5.60;3.00;;;;;;;10.72;64.21;96609.54;104138;1270;62196;-50
2024/04/17 08:13:43;;;;;;;6.20;3.20;;;;;;;10.75;64.60;96613.90;104276;1273;76466;-48
2024/04/17 08:16:10;;;;;;;4.20;2.90;;;;;;;10.80;64.71;96618.73;104566;1273;66237;-50
2024/04/17 08:18:36;;;;;;;5.60;3.10;;;;;;;10.84;63.83;96617.31;104404;1272;62171;-48
2024/04/17 08:21:04;;;;;;;5.50;2.80;;;;;;;10.89;62.69;96616.86;104275;1270;62208;-49
2024/04/17 08:23:30;;;;;;;8.20;2.90;;;;;;;10.93;62.15;96615.89;106056;1273;61953;-50
2024/04/17 08:26:01;;;;;;;7.90;2.80;;;;;;;11.00;62.00;96620.05;104131;1274;74440;-48
2024/04/17 08:28:29;;;;;;;3.50;2.30;;;;;;;11.06;62.27;96623.77;104347;1273;66062;-48
2024/04/17 08:32:05;;;;;;;6.40;2.50;;;;;;;11.12;62.12;96624.86;105637;1270;72775;-49
2024/04/17 08:34:31;;;;;;;4.10;2.60;;;;;;;11.12;60.50;96629.90;103907;1268;62250;-48
2024/04/17 08:36:59;;;;;;;7.60;2.60;;;;;;;11.10;60.85;96627.61;104123;1270;62908;-50
2024/04/17 08:39:26;;;;;;;8.40;3.00;;;;;;;11.00;59.71;96625.86;108175;1269;75085;-48
2024/04/17 08:41:54;;;;;;;5.10;2.40;;;;;;;10.84;60.36;96626.58;107042;1269;62141;-49
2024/04/17 08:44:30;;;;;;;6.20;2.60;;;;;;;10.80;61.26;96628.33;108275;1269;72623;-49
2024/04/17 08:46:56;;;;;;;;;;;;;;;10.78;60.85;96629.85;107849;1270;60339;-49
2024/04/17 08:49:25;;;;;;;4.20;2.20;;;;;;;10.78;60.24;96628.39;104482;1272;62003;-47
2024/04/17 08:51:55;;;;;;;3.80;2.40;;;;;;;10.79;60.95;96632.02;104256;1275;77109;-49
2024/04/17 08:54:22;;;;;;;4.70;2.40;;;;;;;10.78;60.52;96631.50;104517;1270;65826;-48
2024/04/17 08:56:49;;;;;;;4.00;2.40;;;;;;;10.80;60.82;96632.60;104338;1270;73285;-48
2024/04/17 08:59:16;;;;;;;4.20;2.20;;;;;;;10.81;60.22;96635.40;104421;1270;62006;-48
2024/04/17 09:01:42;;;;;;;3.80;2.00;;;;;;;10.75;59.04;96631.55;104423;1270;62095;-48
2024/04/17 09:04:09;;;;;;;5.20;2.40;;;;;;;10.67;59.40;96624.66;104538;1268;75392;-48
2024/04/17 09:06:36;;;;;;;4.90;2.40;;;;;;;10.70;60.56;96623.85;104302;1270;66316;-47
2024/04/17 09:09:03;;;;;;;2.90;1.90;;;;;;;10.75;60.62;96625.13;104553;1270;72518;-48
2024/04/17 09:11:30;;;;;;;4.40;2.30;;;;;;;10.75;60.52;96625.44;104392;1274;62078;-49
2024/04/17 09:13:56;;;;;;;4.40;2.10;;;;;;;10.80;59.67;96623.89;104376;1270;62085;-48
2024/04/17 09:16:23;;;;;;;6.40;2.00;;;;;;;10.89;59.42;96619.11;104424;1273;75114;-48
2024/04/17 09:18:50;;;;;;;3.30;2.30;;;;;;;10.98;60.43;96620.50;104264;1273;66083;-48
2024/04/17 09:21:17;;;;;;;5.40;1.90;;;;;;;11.07;59.35;96620.00;104233;1270;73588;-49
2024/04/17 09:23:43;;;;;;;3.80;2.50;;;;;;;11.05;59.07;96618.77;104328;1276;62068;-50
2024/04/17 09:26:14;;;;;;;4.70;2.10;;;;;;;11.03;59.56;96624.21;104495;1270;62158;-48
2024/04/17 09:28:40;;;;;;;5.20;2.30;;;;;;;10.95;59.92;96618.89;104311;1272;74417;-49
2024/04/17 09:31:07;;;;;;;7.30;3.10;;;;;;;11.01;60.41;96621.84;104502;1273;66429;-49
2024/04/17 09:33:34;;;;;;;6.50;4.70;;;;;;;11.14;59.24;96619.55;104035;1270;73198;-48
2024/04/17 09:36:01;;;;;;;6.70;2.80;;;;;;;11.29;58.46;96613.86;104467;1271;61964;-50
2024/04/17 09:38:28;;;;;;;4.40;2.20;;;;;;;11.46;57.57;96615.70;104479;1271;62184;-49
2024/04/17 09:40:58;;;;;;;3.40;1.90;;;;;;;11.62;56.48;96615.67;108044;1270;75525;-49
2024/04/17 09:43:26;;;;;;;5.00;2.30;;;;;;;11.78;55.46;96615.64;105954;1271;66556;-48
2024/04/17 09:46:02;;;;;;;5.20;2.00;;;;;;;11.93;55.25;96611.88;104446;1270;72637;-48
2024/04/17 09:48:29;;;;;;;4.10;1.50;;;;;;;12.08;54.23;96607.87;104496;1269;62064;-47
2024/04/17 09:51:06;;;;;;;5.60;2.30;;;;;;;12.15;54.24;96606.72;104511;1271;62100;-48
2024/04/17 09:53:34;;;;;;;4.00;1.90;;;;;;;12.26;54.36;96607.19;104441;1273;75419;-48
2024/04/17 09:56:05;;;;;;;3.20;2.00;;;;;;;12.35;54.27;96610.69;104532;1271;66401;-51
2024/04/17 09:58:32;;;;;;;5.60;1.70;;;;;;;12.40;53.43;96610.31;104593;1271;71551;-48
2024/04/17 10:01:03;;;;;;;3.60;1.70;;;;;;;12.39;52.60;96603.53;104377;1270;61996;-48
2024/04/17 10:03:31;;;;;;;3.50;2.00;;;;;;;12.35;53.19;96607.33;104382;1271;62199;-48
2024/04/17 10:06:01;;;;;;;4.50;2.10;;;;;;;12.31;52.21;96610.41;104418;1277;75395;-49
2024/04/17 10:08:29;;;;;;;2.80;1.70;;;;;;;12.24;52.04;96610.30;104464;1273;66557;-48
2024/04/17 10:10:56;;;;;;;3.30;1.70;;;;;;;12.17;51.98;96612.77;104425;1270;72535;-49
2024/04/17 10:13:23;;;;;;;6.30;1.90;;;;;;;12.09;51.91;96611.89;104111;1275;62245;-47
2024/04/17 10:15:51;;;;;;;3.20;1.70;;;;;;;12.01;51.61;96610.25;108280;1269;60190;-48
2024/04/17 10:18:17;;;;;;;2.60;1.60;;;;;;;11.93;51.64;96606.73;104610;1270;73958;-49
2024/04/17 10:20:45;;;;;;;3.20;2.00;;;;;;;11.88;52.04;96606.19;104398;1271;66210;-47
2024/04/17 10:23:12;;;;;;;3.30;2.00;;;;;;;11.83;52.33;96605.48;104542;1269;72472;-49
2024/04/17 10:25:58;;;;;;;8.50;2.20;;;;;;;11.82;52.56;96603.85;104456;1274;62084;-48
2024/04/17 10:28:25;;;;;;;4.90;2.20;;;;;;;11.80;52.58;96601.30;104466;1270;62090;-49
2024/04/17 10:30:56;;;;;;;6.70;2.40;;;;;;;11.68;52.23;96607.45;104582;1274;75406;-48
2024/04/17 10:33:35;;;;;;;3.60;2.40;;;;;;;11.51;52.59;96603.92;104364;1269;66111;-50
2024/04/17 10:36:03;;;;;;;5.40;2.40;;;;;;;11.45;53.00;96596.68;104564;1271;72746;-48
2024/04/17 10:38:30;;;;;;;7.90;3.00;;;;;;;11.44;53.04;96590.14;104301;1269;62206;-46
2024/04/17 10:41:03;;;;;;;4.80;2.40;;;;;;;11.48;53.46;96583.54;104358;1273;62078;-47
2024/04/17 10:43:33;;;;;;;5.30;2.50;;;;;;;11.54;53.11;96582.73;104294;1270;75724;-48
2024/04/17 10:46:04;;;;;;;5.70;2.20;;;;;;;11.58;52.65;96587.48;104421;1273;65769;-48
2024/04/17 10:48:31;;;;;;;2.90;1.90;;;;;;;11.54;52.57;96593.80;104541;1270;72484;-48
2024/04/17 10:50:58;;;;;;;4.50;2.40;;;;;;;11.51;53.14;96590.52;104006;1276;62018;-48
2024/04/17 10:53:24;;;;;;;3.60;2.10;;;;;;;11.48;54.01;96592.41;104470;1271;64028;-48
2024/04/17 10:55:51;;;;;;;10.40;2.10;;;;;;;11.44;54.79;96592.27;104423;1273;75356;-49
2024/04/17 10:58:20;;;;;;;4.30;1.90;;;;;;;11.45;55.54;96589.32;104241;1270;66522;-49
2024/04/17 11:00:49;;;;;;;3.90;1.70;;;;;;;11.53;54.75;96593.19;104375;1276;73340;-53
2024/04/17 11:03:15;;;;;;;6.00;1.80;;;;;;;11.59;52.94;96595.95;104528;1271;62071;-48
2024/04/17 11:05:42;;;;;;;3.90;2.10;;;;;;;11.60;52.58;96594.12;104696;1269;62222;-49
2024/04/17 11:08:09;;;;;;;3.20;1.70;;;;;;;11.55;52.43;96597.33;104495;1269;75426;-50
2024/04/17 11:10:35;;;;;;;3.90;2.00;;;;;;;11.41;52.83;96600.36;105996;1273;66818;-47
2024/04/17 11:13:02;;;;;;;4.30;1.90;;;;;;;11.34;53.12;96599.34;104335;1271;72555;-46
2024/04/17 11:15:29;;;;;;;4.00;2.20;;;;;;;11.37;52.52;96595.45;104321;1276;62175;-46
2024/04/17 11:17:56;;;;;;;3.90;2.20;;;;;;;11.51;53.01;96595.88;104147;1270;62175;-51
2024/04/17 11:20:23;;;;;;;2.30;1.70;;;;;;;11.65;53.80;96598.31;104433;1274;75436;-51
2024/04/17 11:22:50;;;;;;;5.60;2.00;;;;;;;11.90;53.70;96599.13;104475;1274;65302;-48
2024/04/17 11:25:16;;;;;;;4.40;2.00;;;;;;;12.14;53.91;96604.39;104525;1270;72503;-49
2024/04/17 11:27:44;;;;;;;3.70;1.80;;;;;;;12.35;52.78;96602.19;104469;1275;62165;-48
2024/04/17 11:30:17;;;;;;;5.00;2.20;;;;;;;12.58;52.36;96594.45;104588;1274;62100;-49